Time;durP1;ratioP1;P1;durP2;ratioP2;P2;SDS_P1;SDS_P2;PMS_P1;PMS_P2;Temp;Humidity;BMP_temperature;BMP_pressure;BME280_temperature;BME280_humidity;BME280_pressure;Samples;Min_cycle;Max_cycle;Signal;HPM_P1;HPM_P2
2022/08/22 00:01:45;;;;;;;10.48;3.65;;;21.30;99.90;;;;;;5113567;28;20181;-61
2022/08/22 00:04:32;;;;;;;11.40;3.80;;;21.30;99.90;;;;;;5105107;28;20193;-61
2022/08/22 00:07:28;;;;;;;15.13;4.40;;;21.20;99.90;;;;;;5100782;28;20192;-64
2022/08/22 00:10:05;;;;;;;11.82;3.45;;;21.10;99.90;;;;;;5091042;28;20189;-62
2022/08/22 00:12:44;;;;;;;12.13;3.55;;;21.10;99.90;;;;;;5107257;28;20178;-61
2022/08/22 00:15:27;;;;;;;14.80;3.63;;;21.00;99.90;;;;;;5095637;28;20239;-60
2022/08/22 00:18:18;;;;;;;10.80;3.47;;;21.10;99.90;;;;;;5095906;28;20216;-61
2022/08/22 00:21:18;;;;;;;14.32;3.60;;;21.10;99.90;;;;;;5097761;28;20214;-62
2022/08/22 00:23:47;;;;;;;10.13;3.80;;;21.00;99.90;;;;;;5094531;28;20184;-61
2022/08/22 00:26:33;;;;;;;14.15;4.10;;;21.00;99.90;;;;;;5103274;28;20185;-61
2022/08/22 00:29:05;;;;;;;13.73;3.90;;;20.90;99.90;;;;;;5108538;28;20668;-61
2022/08/22 00:31:34;;;;;;;9.98;3.30;;;20.90;99.90;;;;;;5109239;28;20182;-61
2022/08/22 00:34:09;;;;;;;11.38;3.80;;;20.90;99.90;;;;;;5097910;28;20205;-61
2022/08/22 00:36:49;;;;;;;11.50;3.35;;;20.90;99.90;;;;;;5087276;28;20183;-61
2022/08/22 00:39:23;;;;;;;9.18;3.55;;;20.90;99.90;;;;;;5111897;28;20181;-61
2022/08/22 00:42:08;;;;;;;17.83;3.78;;;20.90;99.90;;;;;;5101226;28;20182;-61
2022/08/22 00:45:07;;;;;;;12.75;3.22;;;20.90;99.90;;;;;;5102313;28;20173;-61
2022/08/22 00:47:54;;;;;;;13.75;3.50;;;20.90;99.90;;;;;;5091255;28;20174;-61
2022/08/22 00:50:39;;;;;;;15.55;3.33;;;20.80;99.90;;;;;;5096114;27;20273;-60
2022/08/22 00:53:26;;;;;;;10.43;3.33;;;20.80;99.90;;;;;;5094170;27;20174;-61
2022/08/22 00:56:29;;;;;;;15.80;3.30;;;20.70;99.90;;;;;;5105544;28;20182;-62
2022/08/22 00:59:14;;;;;;;12.70;3.22;;;20.70;99.90;;;;;;5095215;28;20173;-60
2022/08/22 01:02:09;;;;;;;17.52;3.42;;;20.70;99.90;;;;;;5100959;28;20182;-61
2022/08/22 01:04:45;;;;;;;12.68;2.90;;;20.70;99.90;;;;;;5080047;28;20673;-61
2022/08/22 01:07:32;;;;;;;11.32;3.33;;;20.60;99.90;;;;;;5102710;28;20168;-61
2022/08/22 01:10:29;;;;;;;11.68;3.47;;;20.60;99.90;;;;;;5095350;28;20184;-61
2022/08/22 01:13:16;;;;;;;10.77;4.00;;;20.60;99.90;;;;;;5081067;28;20262;-61
2022/08/22 01:15:43;;;;;;;10.43;3.78;;;20.50;99.90;;;;;;5095548;27;20177;-61
2022/08/22 01:18:43;;;;;;;12.75;4.15;;;20.50;99.90;;;;;;5086681;28;20234;-61
2022/08/22 01:21:47;;;;;;;12.13;4.10;;;20.50;99.90;;;;;;5094938;28;20240;-61
2022/08/22 01:27:43;;;;;;;15.00;4.00;;;20.40;99.90;;;;;;5094357;28;20213;-61
2022/08/22 01:30:22;;;;;;;13.25;3.85;;;20.40;99.90;;;;;;5097158;28;20169;-62
2022/08/22 01:32:59;;;;;;;13.13;4.18;;;20.30;99.90;;;;;;5100260;28;20593;-61
2022/08/22 01:35:35;;;;;;;14.32;4.15;;;20.30;99.90;;;;;;5107633;28;20645;-61
2022/08/22 01:38:26;;;;;;;13.75;4.20;;;20.30;99.90;;;;;;5099710;28;20268;-61
2022/08/22 01:41:26;;;;;;;16.35;3.90;;;20.20;99.90;;;;;;5094212;28;20676;-61
2022/08/22 01:44:42;;;;;;;9.95;3.50;;;20.20;99.90;;;;;;5093722;28;20182;-61
2022/08/22 01:47:16;;;;;;;14.27;3.50;;;20.20;99.90;;;;;;5037902;28;20184;-61
2022/08/22 01:49:50;;;;;;;10.52;3.83;;;20.10;99.90;;;;;;5093021;28;20573;-61
2022/08/22 01:52:33;;;;;;;12.73;3.60;;;20.10;99.90;;;;;;5097171;28;20178;-61
2022/08/22 01:55:06;;;;;;;13.20;3.90;;;20.10;99.90;;;;;;5095854;28;20201;-62
2022/08/22 01:57:52;;;;;;;11.15;3.88;;;20.10;99.90;;;;;;5097033;28;20226;-61
2022/08/22 02:00:21;;;;;;;10.85;3.90;;;20.10;99.90;;;;;;5109386;28;20181;-61
2022/08/22 02:03:15;;;;;;;12.57;4.03;;;20.00;99.90;;;;;;5097033;28;20302;-61
2022/08/22 02:06:06;;;;;;;13.05;4.15;;;20.10;99.90;;;;;;5105232;28;20545;-61
2022/08/22 02:08:56;;;;;;;10.07;3.67;;;20.00;99.90;;;;;;5075415;28;20185;-61
2022/08/22 02:11:35;;;;;;;15.65;4.30;;;20.00;99.90;;;;;;5102718;28;20181;-62
2022/08/22 02:14:37;;;;;;;15.02;4.20;;;20.00;99.90;;;;;;5100564;27;20626;-69
2022/08/22 02:17:27;;;;;;;12.82;3.92;;;19.90;99.90;;;;;;5107681;28;20173;-62
2022/08/22 02:20:00;;;;;;;11.93;4.55;;;19.90;99.90;;;;;;5099262;28;20174;-62
2022/08/22 02:22:52;;;;;;;17.15;4.95;;;19.90;99.90;;;;;;5083530;28;20181;-62
2022/08/22 02:25:24;;;;;;;13.32;4.20;;;19.90;99.90;;;;;;5107688;28;20655;-62
2022/08/22 02:28:05;;;;;;;14.63;4.50;;;19.90;99.90;;;;;;5100218;28;20221;-61
2022/08/22 02:30:51;;;;;;;17.63;5.28;;;19.90;99.90;;;;;;5101080;28;20189;-61
2022/08/22 02:33:54;;;;;;;16.20;4.70;;;19.90;99.90;;;;;;5103220;28;20217;-61
2022/08/22 02:36:26;;;;;;;13.85;4.35;;;19.90;99.90;;;;;;5078580;28;20189;-61
2022/08/22 02:39:20;;;;;;;8.32;4.18;;;19.80;99.90;;;;;;5104997;28;20282;-61
2022/08/22 02:42:04;;;;;;;14.25;4.57;;;19.80;99.90;;;;;;5110446;28;20177;-62
2022/08/22 02:44:34;;;;;;;15.75;4.25;;;19.80;99.90;;;;;;5094454;28;20176;-63
2022/08/22 02:47:00;;;;;;;13.95;4.35;;;19.80;99.90;;;;;;5100643;28;20186;-64
2022/08/22 02:49:54;;;;;;;18.13;4.55;;;19.80;99.90;;;;;;5108273;28;20297;-67
2022/08/22 02:52:29;;;;;;;14.52;4.32;;;19.80;99.90;;;;;;5093883;28;20674;-62
2022/08/22 02:55:20;;;;;;;14.18;4.13;;;19.80;99.90;;;;;;5088357;28;20285;-67
2022/08/22 02:58:01;;;;;;;13.23;4.40;;;19.80;99.90;;;;;;5095961;28;20178;-62
2022/08/22 03:00:30;;;;;;;10.02;4.20;;;19.80;99.90;;;;;;5093096;28;20217;-62
2022/08/22 03:02:58;;;;;;;14.77;4.78;;;19.70;99.90;;;;;;5099642;28;20297;-61
2022/08/22 03:05:47;;;;;;;15.80;4.85;;;19.70;99.90;;;;;;5105828;28;20257;-63
2022/08/22 03:08:20;;;;;;;15.40;4.47;;;19.70;99.90;;;;;;5086043;28;20316;-61
2022/08/22 03:11:28;;;;;;;11.68;4.07;;;19.70;99.90;;;;;;5096510;28;20196;-61
2022/08/22 03:14:13;;;;;;;13.02;4.43;;;19.70;99.90;;;;;;5074562;28;20212;-61
2022/08/22 03:17:02;;;;;;;15.88;4.82;;;19.60;99.90;;;;;;5078456;28;20192;-61
2022/08/22 03:20:06;;;;;;;14.77;5.35;;;19.60;99.90;;;;;;5107097;28;20267;-61
2022/08/22 03:22:58;;;;;;;15.27;4.93;;;19.60;99.90;;;;;;5092813;28;20264;-61
2022/08/22 03:25:43;;;;;;;14.63;4.75;;;19.60;99.90;;;;;;5097355;28;20181;-62
2022/08/22 03:28:14;;;;;;;14.90;5.00;;;19.60;99.90;;;;;;5098357;28;20718;-61
2022/08/22 03:31:21;;;;;;;12.45;4.88;;;19.50;99.90;;;;;;5110016;28;20182;-61
2022/08/22 03:34:22;;;;;;;15.32;4.75;;;19.50;99.90;;;;;;5105267;28;20216;-67
2022/08/22 03:37:05;;;;;;;16.08;4.72;;;19.50;99.90;;;;;;5096097;28;20213;-66
2022/08/22 03:39:58;;;;;;;15.10;5.45;;;19.50;99.90;;;;;;5097696;27;20193;-61
2022/08/22 03:42:59;;;;;;;18.10;5.07;;;19.50;99.90;;;;;;5110279;28;20220;-62
2022/08/22 03:45:37;;;;;;;12.07;5.20;;;19.50;99.90;;;;;;5086267;28;20654;-62
2022/08/22 03:48:15;;;;;;;12.48;5.20;;;19.40;99.90;;;;;;5113479;28;20180;-64
2022/08/22 03:51:22;;;;;;;14.05;5.18;;;19.40;99.90;;;;;;5105523;28;20217;-61
2022/08/22 03:54:28;;;;;;;14.35;5.18;;;19.40;99.90;;;;;;5100209;28;20227;-61
2022/08/22 03:57:05;;;;;;;16.40;4.90;;;19.30;99.90;;;;;;5096416;28;20214;-61
2022/08/22 03:59:46;;;;;;;13.90;4.75;;;19.40;99.90;;;;;;5095431;28;20633;-61
2022/08/22 04:02:29;;;;;;;12.70;5.15;;;19.30;99.90;;;;;;5096967;28;20182;-60
2022/08/22 04:04:55;;;;;;;14.13;5.40;;;19.30;99.90;;;;;;5112575;28;20169;-61
2022/08/22 04:07:30;;;;;;;16.42;5.00;;;19.30;99.90;;;;;;5109096;28;20227;-61
2022/08/22 04:10:30;;;;;;;17.50;5.57;;;19.30;99.90;;;;;;5110461;28;20172;-64
2022/08/22 04:13:32;;;;;;;17.05;5.53;;;19.20;99.90;;;;;;5109010;28;20181;-65
2022/08/22 04:16:32;;;;;;;12.73;4.95;;;19.20;99.90;;;;;;5102705;28;20210;-63
2022/08/22 04:19:52;;;;;;;20.00;4.88;;;19.20;99.90;;;;;;5110764;28;20197;-61
2022/08/22 04:22:37;;;;;;;16.98;5.30;;;19.10;99.90;;;;;;5010847;28;20184;-61
2022/08/22 04:25:05;;;;;;;14.75;5.25;;;19.10;99.90;;;;;;5087608;28;20185;-61
2022/08/22 04:27:48;;;;;;;14.02;5.82;;;19.10;99.90;;;;;;5095425;28;20600;-61
2022/08/22 04:30:44;;;;;;;13.50;5.28;;;19.10;99.90;;;;;;5104356;27;20173;-61
2022/08/22 04:33:22;;;;;;;18.25;5.40;;;19.10;99.90;;;;;;5103653;27;20311;-63
2022/08/22 04:35:56;;;;;;;13.50;5.28;;;19.10;99.90;;;;;;5104712;27;20174;-62
2022/08/22 04:38:28;;;;;;;21.30;5.75;;;19.10;99.90;;;;;;5108377;28;20173;-64
2022/08/22 04:40:59;;;;;;;14.02;5.50;;;19.10;99.90;;;;;;5103740;28;20186;-61
2022/08/22 04:43:46;;;;;;;16.17;5.95;;;19.10;99.90;;;;;;5113722;28;20616;-66
2022/08/22 04:46:26;;;;;;;21.35;5.07;;;19.10;99.90;;;;;;5085213;28;20199;-60
2022/08/22 04:49:12;;;;;;;13.48;5.78;;;19.10;99.90;;;;;;5094200;28;20177;-66
2022/08/22 04:51:45;;;;;;;15.50;5.72;;;19.10;99.90;;;;;;5106502;28;20169;-61
2022/08/22 04:54:11;;;;;;;14.75;5.43;;;19.10;99.90;;;;;;5088930;28;20194;-60
2022/08/22 04:57:13;;;;;;;18.10;5.65;;;19.20;99.90;;;;;;5106248;28;20593;-60
2022/08/22 04:59:40;;;;;;;13.25;5.75;;;19.10;99.90;;;;;;5109071;28;20177;-60
2022/08/22 05:02:09;;;;;;;24.08;5.90;;;19.20;99.90;;;;;;5108041;27;20173;-59
2022/08/22 05:04:39;;;;;;;13.00;5.72;;;19.20;99.90;;;;;;5107342;27;20590;-62
2022/08/22 05:07:19;;;;;;;15.40;5.90;;;19.20;99.90;;;;;;5105312;28;20180;-60
2022/08/22 05:09:50;;;;;;;15.18;5.43;;;19.20;99.90;;;;;;5107056;28;20504;-62
2022/08/22 05:12:22;;;;;;;18.52;5.65;;;19.20;99.90;;;;;;5094466;28;20169;-61
2022/08/22 05:14:57;;;;;;;14.50;5.55;;;19.20;99.90;;;;;;5093048;28;20197;-61
2022/08/22 05:17:27;;;;;;;18.77;5.53;;;19.20;99.90;;;;;;5075545;28;20208;-66
2022/08/22 05:19:55;;;;;;;18.95;5.72;;;19.20;99.90;;;;;;5098439;28;20208;-66
2022/08/22 05:22:28;;;;;;;16.00;5.68;;;19.20;99.90;;;;;;5099586;28;20170;-64
2022/08/22 05:24:58;;;;;;;18.73;5.82;;;19.20;99.90;;;;;;5079590;28;20285;-67
2022/08/22 05:27:38;;;;;;;16.88;6.15;;;19.20;99.90;;;;;;5091060;28;20538;-68
2022/08/22 05:30:12;;;;;;;24.20;6.20;;;19.30;99.90;;;;;;5107039;28;20173;-64
2022/08/22 05:33:15;;;;;;;21.92;6.35;;;19.30;99.90;;;;;;5105532;28;20176;-62
2022/08/22 05:35:53;;;;;;;15.10;5.47;;;19.30;99.90;;;;;;5093413;27;20223;-62
2022/08/22 05:38:24;;;;;;;17.52;5.00;;;19.30;99.90;;;;;;5098945;28;20195;-62
2022/08/22 05:41:08;;;;;;;23.92;5.68;;;19.40;99.90;;;;;;5105542;28;20281;-68
2022/08/22 05:43:42;;;;;;;17.45;5.60;;;19.30;99.90;;;;;;5092865;28;20181;-66
2022/08/22 05:46:19;;;;;;;17.42;5.32;;;19.30;99.90;;;;;;5094002;28;20182;-62
2022/08/22 05:49:21;;;;;;;19.17;5.80;;;19.30;99.90;;;;;;5092638;28;20737;-60
2022/08/22 05:52:14;;;;;;;18.15;5.63;;;19.30;99.90;;;;;;5078348;28;20189;-67
2022/08/22 05:55:00;;;;;;;20.00;6.10;;;19.30;99.90;;;;;;5093980;28;20221;-62
2022/08/22 05:57:29;;;;;;;18.70;6.00;;;19.30;99.90;;;;;;5100457;28;20188;-66
2022/08/22 06:00:11;;;;;;;17.30;5.47;;;19.30;99.90;;;;;;5105381;28;20185;-61
2022/08/22 06:02:43;;;;;;;22.90;5.70;;;19.30;99.90;;;;;;5092589;28;20204;-65
2022/08/22 06:05:10;;;;;;;19.58;5.65;;;19.30;99.90;;;;;;5089374;27;20169;-63
2022/08/22 06:07:46;;;;;;;14.77;5.68;;;19.30;99.90;;;;;;5097607;28;20261;-62
2022/08/22 06:10:41;;;;;;;19.63;5.53;;;19.30;99.90;;;;;;5106510;28;20708;-62
2022/08/22 06:13:17;;;;;;;25.38;6.40;;;19.40;99.90;;;;;;5101126;28;20180;-69
2022/08/22 06:15:50;;;;;;;19.80;6.93;;;19.40;99.90;;;;;;5105140;28;20668;-61
2022/08/22 06:18:21;;;;;;;20.88;6.32;;;19.40;99.90;;;;;;5092532;28;20256;-61
2022/08/22 06:21:01;;;;;;;22.08;6.78;;;19.40;99.90;;;;;;5084744;28;20170;-61
2022/08/22 06:23:37;;;;;;;28.52;7.75;;;19.50;99.90;;;;;;5076766;28;20588;-62
2022/08/22 06:26:04;;;;;;;23.13;6.63;;;19.50;99.90;;;;;;5093049;28;20234;-62
2022/08/22 06:28:43;;;;;;;20.80;6.45;;;19.50;99.90;;;;;;5093715;28;20332;-63
2022/08/22 06:31:16;;;;;;;19.83;5.40;;;19.60;99.90;;;;;;5096418;28;20178;-60
2022/08/22 06:33:43;;;;;;;16.02;4.93;;;19.60;99.90;;;;;;5089485;28;20201;-62
2022/08/22 06:36:30;;;;;;;14.75;5.00;;;19.70;99.90;;;;;;5101517;28;20498;-63
2022/08/22 06:39:17;;;;;;;14.98;4.72;;;19.70;99.90;;;;;;5101876;28;20181;-61
2022/08/22 06:41:51;;;;;;;16.92;4.97;;;19.70;99.90;;;;;;5086441;28;20174;-62
2022/08/22 06:44:22;;;;;;;17.42;4.30;;;19.80;99.90;;;;;;5106144;28;20180;-64
2022/08/22 06:46:54;;;;;;;17.00;4.30;;;19.80;99.90;;;;;;5104383;28;20188;-64
2022/08/22 06:49:23;;;;;;;12.85;4.53;;;19.80;99.90;;;;;;5097130;28;20338;-63
2022/08/22 06:51:50;;;;;;;13.27;4.88;;;19.90;99.90;;;;;;5093099;28;20678;-64
2022/08/22 06:54:23;;;;;;;16.92;5.88;;;19.90;99.90;;;;;;5104532;28;20201;-64
2022/08/22 06:56:51;;;;;;;13.77;4.82;;;19.90;99.90;;;;;;5094338;28;20178;-63
2022/08/22 06:59:26;;;;;;;15.82;4.80;;;19.90;99.90;;;;;;5111394;28;20195;-63
2022/08/22 07:02:25;;;;;;;16.50;4.40;;;20.00;99.90;;;;;;5096082;28;20181;-63
2022/08/22 07:04:51;;;;;;;14.63;4.50;;;20.00;99.90;;;;;;5101831;27;20181;-68
2022/08/22 07:07:19;;;;;;;19.48;5.57;;;20.00;99.90;;;;;;5092655;28;20188;-61
2022/08/22 07:09:50;;;;;;;14.75;4.72;;;20.00;99.90;;;;;;5074820;28;20331;-62
2022/08/22 07:12:22;;;;;;;13.80;4.40;;;20.10;99.90;;;;;;5110122;28;20697;-61
2022/08/22 07:14:56;;;;;;;17.17;4.75;;;20.10;99.90;;;;;;5092915;28;20205;-61
2022/08/22 07:17:28;;;;;;;11.45;4.18;;;20.10;99.90;;;;;;5098061;28;20312;-62
2022/08/22 07:20:16;;;;;;;15.90;4.82;;;20.10;99.90;;;;;;5104301;28;20177;-62
2022/08/22 07:22:56;;;;;;;20.35;5.28;;;20.10;99.90;;;;;;5092844;28;20235;-61
2022/08/22 07:25:23;;;;;;;14.45;4.97;;;20.20;99.90;;;;;;5092095;28;20258;-62
2022/08/22 07:28:24;;;;;;;18.48;4.60;;;20.20;99.90;;;;;;5099506;28;20178;-65
2022/08/22 07:31:09;;;;;;;18.98;4.90;;;20.20;99.90;;;;;;5088458;28;20177;-63
2022/08/22 07:33:46;;;;;;;13.02;4.63;;;20.20;99.90;;;;;;5098090;28;20205;-62
2022/08/22 07:36:32;;;;;;;15.70;4.93;;;20.30;99.90;;;;;;5094781;28;20231;-61
2022/08/22 07:39:22;;;;;;;19.77;4.72;;;20.30;99.90;;;;;;5065705;28;20276;-61
2022/08/22 07:42:09;;;;;;;16.60;4.65;;;20.40;99.90;;;;;;5086383;28;20212;-63
2022/08/22 07:45:03;;;;;;;17.42;5.18;;;20.40;99.90;;;;;;5091681;28;20162;-63
2022/08/22 07:48:13;;;;;;;42.78;4.78;;;20.40;99.90;;;;;;5099311;28;20199;-63
2022/08/22 07:50:52;;;;;;;20.98;4.55;;;20.50;99.90;;;;;;5083375;28;20208;-63
2022/08/22 07:53:29;;;;;;;16.70;4.72;;;20.60;99.90;;;;;;5095512;28;20241;-63
2022/08/22 07:55:58;;;;;;;18.95;5.18;;;20.60;99.90;;;;;;5100049;28;20702;-63
2022/08/22 07:58:27;;;;;;;14.38;4.43;;;20.60;99.90;;;;;;5100021;28;20184;-68
2022/08/22 08:00:54;;;;;;;17.80;4.40;;;20.70;99.90;;;;;;5099036;28;20177;-62
2022/08/22 08:03:22;;;;;;;19.30;4.72;;;20.80;99.90;;;;;;5101999;28;20177;-62
2022/08/22 08:05:48;;;;;;;12.30;4.63;;;20.80;99.90;;;;;;5094363;28;20180;-66
2022/08/22 08:08:25;;;;;;;16.27;4.72;;;20.90;99.90;;;;;;5078248;28;20178;-62
2022/08/22 08:10:55;;;;;;;16.23;4.78;;;20.90;99.90;;;;;;5090027;28;20565;-62
2022/08/22 08:13:34;;;;;;;27.05;4.65;;;21.00;99.90;;;;;;5113578;28;20311;-63
2022/08/22 08:16:03;;;;;;;16.10;4.45;;;21.10;99.90;;;;;;5106865;28;20209;-62
2022/08/22 08:18:32;;;;;;;16.40;4.43;;;21.20;99.90;;;;;;5103333;28;20178;-63
2022/08/22 08:21:03;;;;;;;16.33;4.55;;;21.20;99.90;;;;;;5102048;28;20188;-63
2022/08/22 08:23:34;;;;;;;18.05;4.15;;;21.30;99.90;;;;;;5093723;28;20173;-63
2022/08/22 08:26:03;;;;;;;14.10;4.47;;;21.40;99.90;;;;;;5099470;28;20178;-62
2022/08/22 08:28:36;;;;;;;14.10;4.00;;;21.40;99.90;;;;;;5095865;28;20482;-63
2022/08/22 08:31:16;;;;;;;17.38;3.83;;;21.50;99.90;;;;;;5088669;28;20189;-69
2022/08/22 08:33:46;;;;;;;16.23;4.43;;;21.60;99.90;;;;;;5106497;28;20612;-63
2022/08/22 08:36:36;;;;;;;9.82;3.90;;;21.60;99.90;;;;;;5095140;28;20180;-63
2022/08/22 08:39:35;;;;;;;11.45;4.50;;;21.70;99.90;;;;;;5101553;28;20631;-64
2022/08/22 08:42:01;;;;;;;15.05;5.03;;;21.80;99.90;;;;;;5097306;28;20561;-65
2022/08/22 08:44:40;;;;;;;16.25;4.57;;;21.80;99.90;;;;;;5098661;28;20215;-65
2022/08/22 08:47:26;;;;;;;15.50;4.43;;;21.90;99.90;;;;;;5083932;28;20169;-61
2022/08/22 08:50:19;;;;;;;13.10;4.60;;;21.90;99.90;;;;;;5104162;27;20228;-63
2022/08/22 08:53:09;;;;;;;12.25;4.00;;;22.00;99.90;;;;;;5107454;28;20185;-58
2022/08/22 08:55:52;;;;;;;16.35;4.25;;;22.10;99.90;;;;;;5084339;28;20215;-61
2022/08/22 08:58:32;;;;;;;18.90;4.28;;;22.10;99.90;;;;;;5084980;28;20174;-63
2022/08/22 09:01:11;;;;;;;10.82;4.20;;;22.20;99.90;;;;;;5096771;28;20215;-62
2022/08/22 09:03:58;;;;;;;9.10;3.60;;;22.30;99.90;;;;;;5102473;28;20331;-59
2022/08/22 09:06:57;;;;;;;11.80;4.05;;;22.40;99.90;;;;;;5085572;27;20565;-63
2022/08/22 09:09:50;;;;;;;13.30;3.63;;;22.50;99.90;;;;;;5085899;28;20184;-66
2022/08/22 09:12:29;;;;;;;16.33;4.05;;;22.60;99.90;;;;;;5095161;28;20182;-59
2022/08/22 09:15:12;;;;;;;16.38;3.80;;;22.70;99.90;;;;;;5094048;28;20201;-63
2022/08/22 09:18:04;;;;;;;12.13;3.63;;;22.80;99.90;;;;;;5110135;28;20174;-64
2022/08/22 09:20:56;;;;;;;10.25;3.10;;;22.90;99.90;;;;;;5107798;28;20182;-62
2022/08/22 09:23:58;;;;;;;11.50;3.58;;;22.90;99.90;;;;;;5101529;28;20307;-57
2022/08/22 09:26:43;;;;;;;15.82;3.25;;;23.00;99.90;;;;;;5101053;28;20210;-66
2022/08/22 09:29:41;;;;;;;11.93;3.08;;;23.10;99.80;;;;;;5089596;28;20178;-61
2022/08/22 09:32:07;;;;;;;10.73;3.55;;;23.10;99.20;;;;;;5111422;28;20177;-61
2022/08/22 09:34:57;;;;;;;20.60;3.60;;;23.10;99.10;;;;;;5064872;28;20636;-62
2022/08/22 09:38:18;;;;;;;9.98;3.17;;;23.10;98.70;;;;;;5108870;28;20182;-62
2022/08/22 09:41:07;;;;;;;14.18;3.88;;;23.20;98.30;;;;;;5001839;28;20212;-62
2022/08/22 09:43:44;;;;;;;12.73;3.35;;;23.30;98.00;;;;;;5074279;28;20228;-64
2022/08/22 09:46:18;;;;;;;12.70;3.50;;;23.30;97.80;;;;;;5094620;28;20255;-63
2022/08/22 09:49:20;;;;;;;13.75;3.60;;;23.50;97.60;;;;;;5101906;28;20181;-61
2022/08/22 09:52:06;;;;;;;11.38;3.20;;;23.60;97.20;;;;;;5098156;27;20679;-63
2022/08/22 09:55:08;;;;;;;17.33;5.32;;;23.80;96.60;;;;;;5108627;28;20623;-63
2022/08/22 09:57:50;;;;;;;10.80;3.47;;;23.90;95.80;;;;;;5099287;28;20183;-64
2022/08/22 10:00:30;;;;;;;10.70;3.72;;;23.90;95.70;;;;;;5103143;28;20192;-63
2022/08/22 10:03:02;;;;;;;14.23;4.18;;;24.00;95.70;;;;;;5113169;28;20204;-61
2022/08/22 10:05:46;;;;;;;13.27;3.33;;;24.10;95.40;;;;;;5110908;28;20211;-63
2022/08/22 10:08:12;;;;;;;12.57;3.38;;;24.20;95.40;;;;;;5108646;28;20177;-64
2022/08/22 10:10:56;;;;;;;10.63;3.92;;;24.30;95.30;;;;;;5107034;28;20178;-62
2022/08/22 10:14:00;;;;;;;11.57;3.80;;;24.30;95.10;;;;;;5094245;28;20185;-62
2022/08/22 10:16:31;;;;;;;12.50;3.50;;;24.40;94.80;;;;;;5008658;28;20192;-63
2022/08/22 10:19:03;;;;;;;14.85;3.83;;;24.40;94.30;;;;;;5077709;28;20196;-61
2022/08/22 10:22:22;;;;;;;12.75;3.88;;;24.40;93.70;;;;;;5085447;28;20181;-59
2022/08/22 10:24:53;;;;;;;9.60;4.03;;;24.40;93.20;;;;;;5002327;28;20191;-60
2022/08/22 10:27:50;;;;;;;14.40;4.15;;;24.40;92.90;;;;;;5103173;28;20213;-60
2022/08/22 10:30:33;;;;;;;14.45;3.85;;;24.50;92.80;;;;;;5073153;28;20253;-60
2022/08/22 10:33:14;;;;;;;12.93;3.75;;;24.60;92.40;;;;;;5111637;28;20256;-61
2022/08/22 10:35:49;;;;;;;12.75;3.83;;;24.70;91.90;;;;;;5089275;28;20185;-58
2022/08/22 10:38:31;;;;;;;9.85;3.95;;;24.70;91.40;;;;;;5095783;28;20180;-60
2022/08/22 10:41:03;;;;;;;14.43;3.55;;;24.70;91.20;;;;;;5097575;28;20182;-61
2022/08/22 10:43:49;;;;;;;16.35;3.65;;;24.70;91.20;;;;;;5092192;28;20229;-66
2022/08/22 10:46:33;;;;;;;17.35;4.10;;;24.70;91.40;;;;;;5096592;28;20184;-61
2022/08/22 10:49:02;;;;;;;15.38;3.85;;;24.80;91.30;;;;;;5104947;28;20182;-59
2022/08/22 10:51:43;;;;;;;11.43;3.55;;;24.80;91.10;;;;;;5095497;27;20660;-60
2022/08/22 10:54:41;;;;;;;11.82;3.70;;;24.70;90.50;;;;;;5093058;28;20355;-60
2022/08/22 10:57:17;;;;;;;10.40;3.95;;;24.70;90.30;;;;;;5093417;28;20601;-62
2022/08/22 10:59:46;;;;;;;13.90;3.60;;;24.60;90.30;;;;;;5086089;28;20184;-61
2022/08/22 11:02:44;;;;;;;14.25;3.72;;;24.70;90.60;;;;;;5093007;28;20170;-59
2022/08/22 11:05:35;;;;;;;10.20;3.30;;;24.80;90.70;;;;;;5102768;28;20290;-58
2022/08/22 11:08:18;;;;;;;11.52;3.25;;;25.00;90.70;;;;;;5108629;28;20628;-61
2022/08/22 11:10:59;;;;;;;9.73;3.40;;;25.20;90.20;;;;;;5104485;28;20201;-62
2022/08/22 11:13:28;;;;;;;14.50;4.22;;;25.50;89.30;;;;;;5078333;28;20188;-63
2022/08/22 11:16:24;;;;;;;15.10;4.18;;;25.60;87.70;;;;;;5107016;28;20185;-61
2022/08/22 11:19:15;;;;;;;19.20;4.55;;;25.60;86.70;;;;;;5106577;28;20233;-63
2022/08/22 11:21:58;;;;;;;9.57;3.15;;;25.80;86.40;;;;;;5100487;28;20643;-62
2022/08/22 11:24:29;;;;;;;8.00;3.13;;;25.80;86.60;;;;;;5100695;28;20177;-68
2022/08/22 11:27:03;;;;;;;12.00;3.15;;;26.00;85.50;;;;;;5107965;28;20169;-62
2022/08/22 11:29:50;;;;;;;15.50;3.10;;;26.20;82.90;;;;;;5105657;28;20213;-62
2022/08/22 11:32:34;;;;;;;7.03;2.80;;;26.40;77.10;;;;;;5086887;28;20708;-61
2022/08/22 11:35:22;;;;;;;8.93;2.90;;;26.40;76.30;;;;;;5077940;28;20193;-69
2022/08/22 11:37:57;;;;;;;8.10;2.90;;;26.50;75.90;;;;;;5100685;28;20263;-62
2022/08/22 11:40:29;;;;;;;11.50;3.72;;;26.60;76.20;;;;;;5094584;28;20189;-66
2022/08/22 11:43:03;;;;;;;12.98;4.05;;;26.70;74.70;;;;;;5092302;28;20385;-60
2022/08/22 11:45:36;;;;;;;13.10;3.63;;;26.70;74.70;;;;;;5094965;27;20268;-60
2022/08/22 11:48:35;;;;;;;18.83;3.80;;;26.70;75.30;;;;;;5111965;28;20169;-60
2022/08/22 11:51:18;;;;;;;9.27;3.50;;;26.80;75.50;;;;;;5100803;28;20273;-59
2022/08/22 11:53:50;;;;;;;12.00;2.97;;;26.90;75.00;;;;;;5115202;28;20544;-62
2022/08/22 11:56:33;;;;;;;7.60;2.85;;;27.10;72.70;;;;;;5092993;28;20704;-61
2022/08/22 11:59:06;;;;;;;10.60;2.80;;;27.30;70.70;;;;;;5109626;28;20264;-61
2022/08/22 12:01:53;;;;;;;10.88;3.72;;;27.40;68.80;;;;;;5105766;27;20178;-62
2022/08/22 12:04:29;;;;;;;10.13;3.10;;;27.40;66.60;;;;;;5096043;28;20663;-60
2022/08/22 12:07:13;;;;;;;9.25;3.13;;;27.40;65.90;;;;;;5094351;28;20256;-60
2022/08/22 12:09:50;;;;;;;9.07;3.13;;;27.50;66.00;;;;;;5113929;28;20177;-63
2022/08/22 12:12:22;;;;;;;11.52;3.00;;;27.60;65.90;;;;;;5110611;28;20184;-62
2022/08/22 12:14:48;;;;;;;11.48;3.55;;;27.80;65.10;;;;;;5103147;28;20319;-61
2022/08/22 12:17:42;;;;;;;10.55;3.03;;;28.00;64.90;;;;;;5095448;27;20275;-62
2022/08/22 12:20:45;;;;;;;11.60;3.25;;;28.20;64.70;;;;;;5087253;28;20230;-62
2022/08/22 12:23:28;;;;;;;6.68;2.83;;;28.40;62.80;;;;;;5114406;28;20195;-61
2022/08/22 12:26:09;;;;;;;10.63;3.05;;;28.60;61.80;;;;;;5091797;28;20238;-62
2022/08/22 12:28:48;;;;;;;8.02;2.80;;;28.60;61.70;;;;;;5102011;28;20635;-62
2022/08/22 12:31:21;;;;;;;18.23;3.05;;;28.70;60.30;;;;;;5102204;28;20180;-62
2022/08/22 12:34:00;;;;;;;9.18;3.08;;;28.70;59.70;;;;;;5111244;28;20235;-62
2022/08/22 12:36:44;;;;;;;11.88;3.17;;;28.70;60.00;;;;;;5105613;28;20225;-63
2022/08/22 12:39:33;;;;;;;11.15;3.45;;;28.70;59.70;;;;;;5086573;28;20184;-61
2022/08/22 12:42:23;;;;;;;13.23;3.30;;;28.90;58.80;;;;;;5101945;27;20177;-64
2022/08/22 12:45:07;;;;;;;13.95;3.05;;;29.00;58.30;;;;;;5103450;28;20182;-66
2022/08/22 12:47:55;;;;;;;7.35;2.65;;;29.00;58.50;;;;;;5102441;27;20177;-64
2022/08/22 12:50:29;;;;;;;12.35;3.08;;;29.10;58.20;;;;;;5105696;28;20585;-64
2022/08/22 12:53:25;;;;;;;9.82;2.90;;;29.10;57.90;;;;;;5105566;28;20629;-65
2022/08/22 12:56:13;;;;;;;8.73;2.80;;;29.20;58.20;;;;;;5093483;28;20184;-60
2022/08/22 12:58:57;;;;;;;10.32;3.15;;;29.30;57.30;;;;;;5085342;28;20216;-65
2022/08/22 13:01:23;;;;;;;9.48;2.90;;;29.30;56.40;;;;;;5104269;28;20268;-63
2022/08/22 13:03:55;;;;;;;7.82;2.90;;;29.30;56.70;;;;;;5103331;28;20188;-67
2022/08/22 13:06:36;;;;;;;10.88;3.22;;;29.40;57.00;;;;;;5083774;28;20233;-66
2022/08/22 13:09:18;;;;;;;13.27;3.10;;;29.50;56.40;;;;;;5113799;28;20254;-63
2022/08/22 13:11:49;;;;;;;11.13;2.90;;;29.50;56.20;;;;;;5108095;27;20173;-66
2022/08/22 13:14:22;;;;;;;12.25;4.15;;;29.50;56.40;;;;;;5112974;28;20188;-67
2022/08/22 13:16:53;;;;;;;8.07;3.05;;;29.50;56.40;;;;;;5104045;28;20560;-63
2022/08/22 13:19:23;;;;;;;9.95;2.88;;;29.50;56.30;;;;;;5111714;28;20184;-65
2022/08/22 13:21:58;;;;;;;13.07;3.25;;;29.40;56.30;;;;;;5095374;28;20231;-65
2022/08/22 13:24:48;;;;;;;12.65;3.20;;;29.40;55.90;;;;;;5111186;28;20177;-65
2022/08/22 13:27:23;;;;;;;7.63;2.83;;;29.60;55.90;;;;;;5095321;28;20180;-66
2022/08/22 13:29:56;;;;;;;7.75;2.75;;;29.80;55.30;;;;;;5094907;28;20188;-68
2022/08/22 13:32:38;;;;;;;11.27;2.95;;;30.10;55.10;;;;;;5112982;28;20177;-66
2022/08/22 13:35:08;;;;;;;9.63;3.15;;;30.30;54.70;;;;;;5094728;28;20257;-67
2022/08/22 13:37:43;;;;;;;11.15;3.17;;;30.60;54.20;;;;;;5094367;28;20183;-68
2022/08/22 13:40:30;;;;;;;12.02;2.97;;;30.80;53.90;;;;;;5097201;28;20184;-67
2022/08/22 13:43:06;;;;;;;12.52;3.08;;;31.10;53.30;;;;;;5094649;28;20178;-67
2022/08/22 13:45:34;;;;;;;9.98;3.10;;;31.30;52.60;;;;;;5076094;28;20206;-66
2022/08/22 13:48:06;;;;;;;10.90;3.33;;;31.30;52.00;;;;;;5104957;28;20191;-63
2022/08/22 13:50:38;;;;;;;13.23;2.97;;;31.40;51.80;;;;;;5098244;27;20227;-66
2022/08/22 13:53:24;;;;;;;7.45;3.00;;;31.40;51.50;;;;;;5102617;28;20181;-63
2022/08/22 13:55:59;;;;;;;11.00;3.00;;;31.40;51.30;;;;;;5100776;28;20189;-63